createdAt,value
2019-02-27T00:00:16.251Z,7.03
2019-02-27T00:02:49.555Z,6.17
2019-02-27T00:05:22.954Z,8.27
2019-02-27T00:07:56.348Z,8.80
2019-02-27T00:10:29.669Z,6.30
2019-02-27T00:13:03.044Z,8.93
2019-02-27T00:15:37.961Z,10.07
2019-02-27T00:18:11.486Z,8.93
2019-02-27T00:20:44.816Z,8.73
2019-02-27T00:23:18.107Z,10.63
2019-02-27T00:25:51.401Z,7.43
2019-02-27T00:28:24.713Z,6.97
2019-02-27T00:30:58.071Z,7.47
2019-02-27T00:33:31.420Z,8.90
2019-02-27T00:36:04.806Z,7.27
2019-02-27T00:38:38.120Z,8.07
2019-02-27T00:41:12.796Z,8.53
2019-02-27T00:43:46.483Z,12.30
2019-02-27T00:46:19.811Z,7.00
2019-02-27T00:48:53.107Z,6.33
2019-02-27T00:51:26.453Z,6.77
2019-02-27T00:53:59.780Z,6.87
2019-02-27T00:56:33.085Z,9.67
2019-02-27T00:59:06.395Z,6.80
2019-02-27T01:01:39.781Z,5.07
2019-02-27T01:04:13.114Z,10.57
2019-02-27T01:06:47.470Z,9.70
2019-02-27T01:09:21.539Z,8.20
2019-02-27T01:11:54.854Z,7.60
2019-02-27T01:14:28.266Z,7.30
2019-02-27T01:17:01.566Z,8.17
2019-02-27T01:19:38.285Z,6.67
2019-02-27T01:22:09.915Z,8.03
2019-02-27T01:24:43.240Z,10.73
2019-02-27T01:27:16.580Z,7.83
2019-02-27T01:29:51.601Z,19.77
2019-02-27T01:32:25.189Z,8.07
2019-02-27T01:34:58.526Z,10.97
2019-02-27T01:37:32.333Z,8.50
2019-02-27T01:40:09.135Z,8.17
2019-02-27T01:42:42.438Z,6.20
2019-02-27T01:45:20.769Z,6.90
2019-02-27T01:47:51.438Z,9.37
2019-02-27T01:50:32.862Z,5.63
2019-02-27T01:53:07.416Z,8.00
2019-02-27T01:55:41.498Z,7.80
2019-02-27T01:58:14.832Z,7.27
2019-02-27T02:00:48.128Z,6.67
2019-02-27T02:03:21.415Z,8.43
2019-02-27T02:05:58.761Z,7.20
2019-02-27T02:08:29.865Z,7.37
2019-02-27T02:11:03.176Z,6.67
2019-02-27T02:13:39.672Z,7.30
2019-02-27T02:16:28.262Z,6.03
2019-02-27T02:19:07.281Z,8.00
2019-02-27T02:21:49.883Z,9.70
2019-02-27T02:24:41.381Z,7.63
2019-02-27T02:27:26.789Z,8.27
2019-02-27T02:30:29.321Z,7.50
2019-02-27T02:33:17.909Z,8.97
2019-02-27T02:35:57.444Z,9.37
2019-02-27T02:39:04.556Z,6.87
2019-02-27T02:41:58.957Z,6.90
2019-02-27T02:44:41.029Z,7.50
2019-02-27T02:47:21.285Z,7.77
2019-02-27T02:50:22.553Z,7.70
2019-02-27T02:52:59.048Z,8.63
2019-02-27T02:55:54.484Z,7.47
2019-02-27T02:58:39.776Z,6.83
2019-02-27T03:01:16.228Z,6.77
2019-02-27T03:04:12.975Z,8.27
2019-02-27T03:06:53.977Z,5.97
2019-02-27T03:09:36.103Z,6.40
2019-02-27T03:12:18.659Z,5.43
2019-02-27T03:15:06.863Z,6.90
2019-02-27T03:18:10.777Z,5.47
2019-02-27T03:20:52.385Z,6.20
2019-02-27T03:23:51.052Z,8.60
2019-02-27T03:26:31.656Z,6.83
2019-02-27T03:29:35.550Z,7.07
2019-02-27T03:32:20.861Z,7.90
2019-02-27T03:35:02.970Z,10.30
2019-02-27T03:37:39.483Z,7.13
2019-02-27T03:40:27.939Z,5.63
2019-02-27T03:43:19.030Z,9.07
2019-02-27T03:46:10.452Z,8.53
2019-02-27T03:48:46.948Z,9.53
2019-02-27T03:51:41.374Z,9.40
2019-02-27T03:54:21.161Z,7.07
2019-02-27T03:57:18.931Z,6.70
2019-02-27T04:00:10.642Z,8.67
2019-02-27T04:02:59.267Z,7.30
2019-02-27T04:05:59.622Z,8.10
2019-02-27T04:08:45.046Z,6.47
2019-02-27T04:11:18.645Z,10.13
2019-02-27T04:13:52.066Z,7.30
2019-02-27T04:16:29.007Z,9.23
2019-02-27T04:19:04.641Z,7.90
2019-02-27T04:21:35.612Z,8.50
2019-02-27T04:24:08.928Z,7.13
2019-02-27T04:26:42.716Z,7.73
2019-02-27T04:29:16.037Z,7.70
2019-02-27T04:31:49.356Z,6.37
2019-02-27T04:34:22.645Z,8.30
2019-02-27T04:36:55.973Z,7.07
2019-02-27T04:39:29.268Z,7.13
2019-02-27T04:42:02.605Z,9.50
2019-02-27T04:44:38.847Z,8.03
2019-02-27T04:47:11.029Z,8.40
2019-02-27T04:49:44.341Z,6.83
2019-02-27T04:52:19.307Z,8.53
2019-02-27T04:54:52.718Z,8.80
2019-02-27T04:57:26.072Z,6.90
2019-02-27T04:59:59.402Z,9.03
2019-02-27T05:02:32.726Z,9.77
2019-02-27T05:05:08.633Z,9.70
2019-02-27T05:07:42.647Z,12.67
2019-02-27T05:10:15.991Z,7.63
2019-02-27T05:12:49.346Z,10.77
2019-02-27T05:15:22.684Z,8.10
2019-02-27T05:17:56.302Z,10.57
2019-02-27T05:20:29.790Z,9.90
2019-02-27T05:23:03.190Z,10.70
2019-02-27T05:25:36.509Z,7.30
2019-02-27T05:28:09.851Z,10.33
2019-02-27T05:30:45.222Z,6.90
2019-02-27T05:33:18.273Z,10.40
2019-02-27T05:35:51.669Z,10.60
2019-02-27T05:38:25.091Z,10.27
2019-02-27T05:40:59.995Z,12.33
2019-02-27T05:43:33.493Z,9.20
2019-02-27T05:46:06.775Z,9.80
2019-02-27T05:48:40.271Z,9.53
2019-02-27T05:51:13.574Z,12.83
2019-02-27T05:53:46.946Z,10.90
2019-02-27T05:56:20.264Z,13.17
2019-02-27T05:58:55.898Z,14.07
2019-02-27T06:01:28.650Z,9.27
2019-02-27T06:04:01.968Z,11.93
2019-02-27T06:06:35.314Z,10.70
2019-02-27T06:09:10.397Z,10.53
2019-02-27T06:11:43.848Z,12.93
2019-02-27T06:14:21.124Z,13.03
2019-02-27T06:16:52.364Z,13.80
2019-02-27T06:19:25.711Z,14.33
2019-02-27T06:21:59.230Z,10.67
2019-02-27T06:24:35.678Z,11.63
2019-02-27T06:27:08.993Z,16.00
2019-02-27T06:29:42.319Z,12.20
2019-02-27T06:32:15.596Z,13.03
2019-02-27T06:34:48.986Z,17.33
2019-02-27T06:37:22.307Z,13.30
2019-02-27T06:39:55.659Z,10.67
2019-02-27T06:42:29.105Z,12.77
2019-02-27T06:45:02.456Z,14.33
2019-02-27T06:47:36.224Z,17.27
2019-02-27T06:50:13.003Z,9.67
2019-02-27T06:52:46.413Z,18.03
2019-02-27T06:55:19.902Z,10.20
2019-02-27T06:57:53.273Z,19.03
2019-02-27T07:00:26.570Z,11.73
2019-02-27T07:02:59.921Z,16.97
2019-02-27T07:05:33.239Z,15.87
2019-02-27T07:08:08.284Z,14.57
2019-02-27T07:10:41.590Z,17.67
2019-02-27T07:13:14.913Z,10.70
2019-02-27T07:15:48.857Z,19.40
2019-02-27T07:18:22.419Z,13.80
2019-02-27T07:20:58.274Z,17.43
2019-02-27T07:23:30.785Z,18.23
2019-02-27T07:26:04.092Z,19.77
2019-02-27T07:28:37.521Z,17.43
2019-02-27T07:31:12.422Z,17.90
2019-02-27T07:33:46.021Z,19.43
2019-02-27T07:36:19.522Z,20.03
2019-02-27T07:38:57.186Z,17.87
2019-02-27T07:41:28.021Z,16.17
2019-02-27T07:44:01.358Z,20.03
2019-02-27T07:46:35.613Z,16.93
2019-02-27T07:49:09.145Z,14.60
2019-02-27T07:51:42.742Z,16.17
2019-02-27T07:54:15.995Z,18.43
2019-02-27T07:56:49.286Z,14.03
2019-02-27T07:59:22.612Z,18.07
2019-02-27T08:01:55.886Z,11.23
2019-02-27T08:04:29.244Z,12.40
2019-02-27T08:07:02.529Z,15.90
2019-02-27T08:09:35.934Z,9.90
2019-02-27T08:12:09.596Z,13.20
2019-02-27T08:14:43.042Z,16.03
2019-02-27T08:17:17.824Z,13.50
2019-02-27T08:19:51.415Z,12.37
2019-02-27T08:22:24.742Z,10.17
2019-02-27T08:24:58.135Z,13.87
2019-02-27T08:27:31.506Z,9.87
2019-02-27T08:30:08.078Z,12.57
2019-02-27T08:32:41.373Z,12.00
2019-02-27T08:35:16.623Z,11.97
2019-02-27T08:37:49.752Z,10.17
2019-02-27T08:40:25.144Z,10.50
2019-02-27T08:42:58.130Z,10.60
2019-02-27T08:45:31.485Z,10.83
2019-02-27T08:48:04.919Z,13.37
2019-02-27T08:50:38.220Z,13.67
2019-02-27T08:53:11.610Z,11.37
2019-02-27T08:55:45.104Z,12.53
2019-02-27T08:58:18.485Z,11.33
2019-02-27T09:00:51.972Z,12.00
2019-02-27T09:03:25.269Z,11.47
2019-02-27T09:05:58.573Z,11.67
2019-02-27T09:08:31.939Z,12.50
2019-02-27T09:11:06.631Z,11.83
2019-02-27T09:13:40.148Z,10.13
2019-02-27T09:16:13.453Z,10.60
2019-02-27T09:18:46.790Z,13.23
2019-02-27T09:21:20.140Z,11.73
2019-02-27T09:23:53.537Z,11.57
2019-02-27T09:26:26.845Z,13.90
2019-02-27T09:29:00.138Z,13.70
2019-02-27T09:31:34.718Z,11.63
2019-02-27T09:34:08.559Z,13.90
2019-02-27T09:36:43.294Z,11.57
2019-02-27T09:39:16.901Z,14.53
2019-02-27T09:41:51.242Z,11.27
2019-02-27T09:44:24.754Z,11.23
2019-02-27T09:46:58.135Z,13.97
2019-02-27T09:49:31.420Z,12.17
2019-02-27T09:52:04.827Z,10.33
2019-02-27T09:54:38.113Z,14.27
2019-02-27T09:57:11.445Z,16.50
2019-02-27T09:59:44.760Z,12.00
2019-02-27T10:02:18.117Z,12.47
2019-02-27T10:04:51.409Z,11.20
2019-02-27T10:07:24.883Z,12.10
2019-02-27T10:09:58.178Z,13.00
2019-02-27T10:12:31.731Z,12.20
2019-02-27T10:15:06.005Z,11.13
2019-02-27T10:17:41.084Z,11.00
2019-02-27T10:20:14.454Z,13.87
2019-02-27T10:22:47.812Z,11.03
2019-02-27T10:25:21.132Z,13.50
2019-02-27T10:27:54.467Z,11.53
2019-02-27T10:30:27.902Z,12.07
2019-02-27T10:33:03.264Z,14.40
2019-02-27T10:35:36.418Z,14.27
2019-02-27T10:38:09.809Z,11.97
2019-02-27T10:40:45.986Z,12.30
2019-02-27T10:43:18.357Z,12.33
2019-02-27T10:45:51.673Z,11.30
2019-02-27T10:48:25.099Z,15.20
2019-02-27T10:50:58.501Z,14.60
2019-02-27T10:53:31.848Z,17.73
2019-02-27T10:56:05.246Z,13.87
2019-02-27T10:58:38.684Z,12.33
2019-02-27T11:01:12.065Z,18.23
2019-02-27T11:03:45.420Z,15.37
2019-02-27T11:06:18.812Z,18.10
2019-02-27T11:08:52.249Z,16.80
2019-02-27T11:11:25.703Z,11.40
2019-02-27T11:13:59.029Z,16.63
2019-02-27T11:16:32.382Z,14.43
2019-02-27T11:19:05.785Z,15.97
2019-02-27T11:21:39.157Z,16.43
2019-02-27T11:24:14.546Z,14.17
2019-02-27T11:26:47.632Z,14.93
2019-02-27T11:29:23.572Z,15.17
2019-02-27T11:31:56.018Z,15.17
2019-02-27T11:34:29.380Z,13.00
2019-02-27T11:37:04.323Z,16.00
2019-02-27T11:39:37.744Z,14.57
2019-02-27T11:42:11.254Z,15.20
2019-02-27T11:44:49.420Z,16.10
2019-02-27T11:47:19.772Z,14.97
2019-02-27T11:49:53.209Z,14.67
2019-02-27T11:52:28.642Z,17.53
2019-02-27T11:55:01.654Z,15.83
2019-02-27T11:57:34.983Z,14.10
2019-02-27T12:00:14.256Z,16.23
2019-02-27T12:02:47.585Z,16.40
2019-02-27T12:05:21.055Z,16.70
2019-02-27T12:07:54.732Z,17.53
2019-02-27T12:10:31.047Z,14.90
2019-02-27T12:13:04.646Z,15.67
2019-02-27T12:15:38.177Z,14.33
2019-02-27T12:18:11.940Z,16.50
2019-02-27T12:20:45.484Z,18.63
2019-02-27T12:23:19.071Z,16.77
2019-02-27T12:25:52.579Z,19.27
2019-02-27T12:28:27.736Z,16.23
2019-02-27T12:31:01.327Z,17.93
2019-02-27T12:33:34.823Z,16.23
2019-02-27T12:36:09.020Z,14.87
2019-02-27T12:38:42.623Z,16.57
2019-02-27T12:41:16.060Z,16.80
2019-02-27T12:43:52.676Z,16.20
2019-02-27T12:46:24.560Z,14.60
2019-02-27T12:48:57.910Z,18.43
2019-02-27T12:51:31.305Z,19.70
2019-02-27T12:54:04.796Z,17.27
2019-02-27T12:56:41.534Z,18.63
2019-02-27T12:59:13.293Z,20.47
2019-02-27T13:01:50.798Z,18.23
2019-02-27T13:04:21.802Z,19.37
2019-02-27T13:06:55.181Z,18.63
2019-02-27T13:09:28.527Z,18.83
2019-02-27T13:12:01.871Z,17.60
2019-02-27T13:14:35.186Z,15.73
2019-02-27T13:17:08.596Z,15.53
2019-02-27T13:19:41.937Z,18.60
2019-02-27T13:22:15.298Z,17.93
2019-02-27T13:24:50.300Z,16.20
2019-02-27T13:27:25.161Z,18.77
2019-02-27T13:30:08.504Z,15.53
2019-02-27T13:32:33.852Z,16.77
2019-02-27T13:35:08.138Z,18.63
2019-02-27T13:37:44.510Z,16.17
2019-02-27T13:40:25.727Z,16.50
2019-02-27T13:43:00.997Z,14.67
2019-02-27T13:45:34.178Z,13.03
2019-02-27T13:48:07.579Z,11.90
2019-02-27T13:50:41.016Z,13.37
2019-02-27T13:53:14.439Z,15.80
2019-02-27T13:55:48.869Z,18.97
2019-02-27T13:58:22.338Z,16.37
2019-02-27T14:00:55.970Z,15.57
2019-02-27T14:03:29.359Z,16.90
2019-02-27T14:06:02.795Z,17.03
2019-02-27T14:08:38.181Z,21.40
2019-02-27T14:11:11.708Z,20.93
2019-02-27T14:13:45.252Z,22.17
2019-02-27T14:16:18.849Z,27.00
2019-02-27T14:18:54.114Z,20.30
2019-02-27T14:21:27.843Z,17.60
2019-02-27T14:24:01.292Z,18.20
2019-02-27T14:26:34.624Z,19.63
2019-02-27T14:29:08.839Z,20.57
2019-02-27T14:31:43.494Z,18.20
2019-02-27T14:34:17.375Z,19.03
2019-02-27T14:36:50.787Z,17.53
2019-02-27T14:39:24.177Z,18.47
2019-02-27T14:41:57.468Z,18.33
2019-02-27T14:44:31.587Z,16.00
2019-02-27T14:47:05.553Z,17.63
2019-02-27T14:49:38.905Z,16.97
2019-02-27T14:52:14.305Z,17.13
2019-02-27T14:54:47.339Z,17.00
2019-02-27T14:57:20.629Z,19.07
2019-02-27T14:59:54.100Z,15.80
2019-02-27T15:02:27.436Z,13.23
2019-02-27T15:05:06.099Z,16.17
2019-02-27T15:07:35.850Z,14.57
2019-02-27T15:10:11.826Z,13.70
2019-02-27T15:12:45.145Z,13.63
2019-02-27T15:15:24.211Z,15.27
2019-02-27T15:17:57.593Z,16.63
2019-02-27T15:20:31.290Z,15.43
2019-02-27T15:23:04.893Z,12.43
2019-02-27T15:25:42.211Z,15.50
2019-02-27T15:28:13.286Z,16.03
2019-02-27T15:30:47.347Z,13.53
2019-02-27T15:33:20.717Z,14.33
2019-02-27T15:35:55.466Z,13.97
2019-02-27T15:38:29.177Z,16.10
2019-02-27T15:41:03.365Z,15.67
2019-02-27T15:43:36.844Z,12.93
2019-02-27T15:46:10.217Z,13.33
2019-02-27T15:48:43.584Z,12.73
2019-02-27T15:51:18.472Z,14.50
2019-02-27T15:53:52.082Z,14.00
2019-02-27T15:56:25.379Z,12.90
2019-02-27T15:58:59.304Z,12.60
2019-02-27T16:01:33.714Z,15.37
2019-02-27T16:04:07.285Z,16.13
2019-02-27T16:06:40.723Z,13.93
2019-02-27T16:09:15.434Z,14.33
2019-02-27T16:11:51.490Z,16.83
2019-02-27T16:14:23.881Z,14.63
2019-02-27T16:16:57.568Z,12.50
2019-02-27T16:19:31.479Z,14.10
2019-02-27T16:22:04.928Z,13.87
2019-02-27T16:24:40.404Z,12.60
2019-02-27T16:27:13.322Z,11.50
2019-02-27T16:29:46.644Z,14.70
2019-02-27T16:32:20.240Z,13.63
2019-02-27T16:34:53.739Z,15.47
2019-02-27T16:37:27.033Z,16.53
2019-02-27T16:40:00.349Z,13.43
2019-02-27T16:42:36.435Z,13.47
2019-02-27T16:45:14.051Z,13.50
2019-02-27T16:47:47.411Z,13.73
2019-02-27T16:50:24.750Z,14.30
2019-02-27T16:52:58.079Z,13.50
2019-02-27T16:55:36.029Z,13.90
2019-02-27T16:58:06.442Z,14.10
2019-02-27T17:00:39.898Z,15.60
2019-02-27T17:03:14.000Z,13.30
2019-02-27T17:05:49.675Z,18.63
2019-02-27T17:08:22.620Z,13.23
2019-02-27T17:10:55.955Z,21.80
2019-02-27T17:13:29.301Z,18.63
2019-02-27T17:16:03.398Z,25.93
2019-02-27T17:18:36.809Z,24.47
2019-02-27T17:21:10.117Z,15.30
2019-02-27T17:23:46.587Z,13.80
2019-02-27T17:26:18.864Z,17.30
2019-02-27T17:28:53.614Z,16.50
2019-02-27T17:31:26.952Z,16.73
2019-02-27T17:34:00.261Z,15.63
2019-02-27T17:36:33.660Z,16.37
2019-02-27T17:39:07.944Z,16.83
2019-02-27T17:41:41.861Z,17.47
2019-02-27T17:44:16.430Z,13.80
2019-02-27T17:46:51.683Z,17.50
2019-02-27T17:49:25.390Z,16.00
2019-02-27T17:51:59.818Z,12.70
2019-02-27T17:54:33.172Z,18.27
2019-02-27T17:57:06.565Z,15.00
2019-02-27T17:59:42.371Z,15.93
2019-02-27T18:02:15.077Z,20.60
2019-02-27T18:04:51.141Z,18.10
2019-02-27T18:07:23.507Z,16.33
2019-02-27T18:09:58.321Z,15.23
2019-02-27T18:12:31.846Z,15.03
2019-02-27T18:15:08.369Z,18.07
2019-02-27T18:17:41.687Z,17.00
2019-02-27T18:20:15.076Z,15.40
2019-02-27T18:22:49.555Z,17.17
2019-02-27T18:25:23.768Z,18.40
2019-02-27T18:27:59.529Z,21.33
2019-02-27T18:30:32.278Z,24.03
2019-02-27T18:33:05.711Z,28.17
2019-02-27T18:35:39.041Z,19.90
2019-02-27T18:38:12.447Z,23.20
2019-02-27T18:40:45.810Z,21.63
2019-02-27T18:43:19.085Z,22.93
2019-02-27T18:45:52.415Z,16.63
2019-02-27T18:48:25.730Z,21.90
2019-02-27T18:50:59.435Z,20.20
2019-02-27T18:53:32.641Z,16.47
2019-02-27T18:56:06.094Z,20.67
2019-02-27T18:58:39.436Z,16.57
2019-02-27T19:01:13.035Z,19.70
2019-02-27T19:03:46.454Z,18.97
2019-02-27T19:06:19.858Z,18.07
2019-02-27T19:08:53.159Z,16.87
2019-02-27T19:11:26.542Z,19.43
2019-02-27T19:14:02.404Z,18.57
2019-02-27T19:16:35.050Z,13.50
2019-02-27T19:19:08.462Z,21.07
2019-02-27T19:21:41.866Z,15.50
2019-02-27T19:24:15.267Z,22.03
2019-02-27T19:26:49.508Z,22.00
2019-02-27T19:29:22.893Z,21.90
2019-02-27T19:31:56.280Z,19.53
2019-02-27T19:34:29.656Z,22.03
2019-02-27T19:37:05.235Z,16.77
2019-02-27T19:39:38.114Z,15.70
2019-02-27T19:42:13.227Z,15.83
2019-02-27T19:44:46.520Z,17.67
2019-02-27T19:47:19.831Z,22.00
2019-02-27T19:49:53.177Z,16.57
2019-02-27T19:52:28.418Z,21.70
2019-02-27T19:55:01.640Z,18.90
2019-02-27T19:57:34.958Z,17.37
2019-02-27T20:00:23.712Z,13.17
2019-02-27T20:03:01.173Z,13.70
2019-02-27T20:05:32.250Z,14.23
2019-02-27T20:08:09.871Z,11.23
2019-02-27T20:10:40.827Z,12.20
2019-02-27T20:13:14.143Z,18.80
2019-02-27T20:15:47.525Z,11.57
2019-02-27T20:18:23.426Z,10.73
2019-02-27T20:20:55.995Z,12.47
2019-02-27T20:23:29.377Z,13.27
2019-02-27T20:26:02.841Z,10.00
2019-02-27T20:28:36.241Z,11.13
2019-02-27T20:31:09.609Z,11.77
2019-02-27T20:33:42.970Z,15.17
2019-02-27T20:36:16.276Z,16.77
2019-02-27T20:38:50.858Z,15.63
2019-02-27T20:41:24.624Z,15.67
2019-02-27T20:44:00.323Z,19.63
2019-02-27T20:46:33.058Z,17.50
2019-02-27T20:49:06.339Z,15.03
2019-02-27T20:51:40.621Z,22.13
2019-02-27T20:54:14.136Z,19.10
2019-02-27T20:56:55.360Z,19.90
2019-02-27T20:59:26.084Z,21.80
2019-02-27T21:01:57.587Z,23.77
2019-02-27T21:04:32.293Z,25.03
2019-02-27T21:07:06.218Z,21.30
2019-02-27T21:09:42.290Z,20.67
2019-02-27T21:12:14.650Z,18.90
2019-02-27T21:14:48.015Z,17.27
2019-02-27T21:17:21.855Z,23.20
2019-02-27T21:19:55.303Z,18.70
2019-02-27T21:22:28.654Z,20.90
2019-02-27T21:25:01.987Z,18.67
2019-02-27T21:27:35.305Z,23.13
2019-02-27T21:30:11.803Z,23.23
2019-02-27T21:32:45.152Z,21.87
2019-02-27T21:35:18.548Z,22.70
2019-02-27T21:37:51.933Z,23.37
2019-02-27T21:40:25.283Z,25.00
2019-02-27T21:42:58.602Z,26.47
2019-02-27T21:45:31.978Z,25.30
2019-02-27T21:48:05.370Z,28.97
2019-02-27T21:50:39.854Z,31.43
2019-02-27T21:53:13.870Z,27.87
2019-02-27T21:55:47.259Z,33.03
2019-02-27T21:58:20.850Z,28.07
2019-02-27T22:00:54.158Z,29.03
2019-02-27T22:03:27.560Z,27.47
2019-02-27T22:06:00.856Z,24.63
2019-02-27T22:08:36.042Z,24.40
2019-02-27T22:11:09.285Z,22.47
2019-02-27T22:13:45.346Z,19.63
2019-02-27T22:16:17.760Z,20.20
2019-02-27T22:18:51.065Z,23.83
2019-02-27T22:21:24.361Z,22.03
2019-02-27T22:23:57.900Z,19.17
2019-02-27T22:26:31.202Z,21.63
2019-02-27T22:29:04.523Z,20.33
2019-02-27T22:31:40.258Z,21.20
2019-02-27T22:34:12.912Z,20.30
2019-02-27T22:36:46.219Z,17.63
2019-02-27T22:39:19.527Z,17.37
2019-02-27T22:41:52.838Z,21.03
2019-02-27T22:44:26.341Z,16.63
2019-02-27T22:47:01.233Z,20.73
2019-02-27T22:49:34.559Z,20.00
2019-02-27T22:52:07.901Z,16.63
2019-02-27T22:54:41.203Z,17.80
2019-02-27T22:57:14.494Z,16.47
2019-02-27T22:59:47.800Z,16.67
2019-02-27T23:02:22.207Z,16.47
2019-02-27T23:04:55.668Z,17.40
2019-02-27T23:07:28.964Z,19.10
2019-02-27T23:10:02.441Z,17.57
2019-02-27T23:12:35.762Z,16.00
2019-02-27T23:15:09.425Z,16.70
2019-02-27T23:17:42.775Z,15.33
2019-02-27T23:20:17.509Z,16.93
2019-02-27T23:22:51.194Z,14.77
2019-02-27T23:25:24.500Z,16.67
2019-02-27T23:28:00.743Z,13.47
2019-02-27T23:30:32.961Z,15.43
2019-02-27T23:33:06.271Z,15.60
2019-02-27T23:35:39.631Z,15.50
2019-02-27T23:38:12.970Z,11.80
2019-02-27T23:40:49.141Z,12.87
2019-02-27T23:43:21.335Z,13.40
2019-02-27T23:45:54.617Z,13.67
2019-02-27T23:48:27.939Z,16.03
2019-02-27T23:51:01.219Z,13.30
2019-02-27T23:53:34.554Z,14.87
2019-02-27T23:56:07.890Z,16.70
2019-02-27T23:58:41.210Z,19.87
